createdAt,value
2022-11-29T00:01:17.291Z,99427.78
2022-11-29T00:03:45.287Z,99437.16
2022-11-29T00:06:15.889Z,99434.69
2022-11-29T00:08:45.249Z,99434.13
2022-11-29T00:11:35.159Z,99434.69
2022-11-29T00:14:03.232Z,99429.34
2022-11-29T00:16:31.663Z,99424.34
2022-11-29T00:18:59.558Z,99428.50
2022-11-29T00:21:27.493Z,99424.84
2022-11-29T00:23:56.789Z,99438.00
2022-11-29T00:26:25.181Z,99434.31
2022-11-29T00:28:53.303Z,99434.97
2022-11-29T00:31:22.741Z,99430.63
2022-11-29T00:33:51.336Z,99426.59
2022-11-29T00:36:20.408Z,99433.03
2022-11-29T00:38:48.317Z,99438.66
2022-11-29T00:41:17.677Z,99435.16
2022-11-29T00:43:45.764Z,99438.47
2022-11-29T00:46:13.847Z,99435.50
2022-11-29T00:48:41.957Z,99433.03
2022-11-29T00:51:09.849Z,99430.16
2022-11-29T00:53:39.291Z,99438.06
2022-11-29T00:56:08.460Z,99439.53
2022-11-29T00:58:38.404Z,99441.38
2022-11-29T01:01:07.140Z,99448.22
2022-11-29T01:03:35.129Z,99434.50
2022-11-29T01:06:04.849Z,99444.53
2022-11-29T01:08:32.949Z,99443.41
2022-11-29T01:11:09.545Z,99438.72
2022-11-29T01:13:38.998Z,99441.09
2022-11-29T01:16:08.044Z,99432.91
2022-11-29T01:18:37.115Z,99441.28
2022-11-29T01:21:07.214Z,99435.50
2022-11-29T01:23:36.477Z,99429.16
2022-11-29T01:26:07.308Z,99435.31
2022-11-29T01:28:35.728Z,99440.66
2022-11-29T01:31:08.781Z,99437.34
2022-11-29T01:33:37.010Z,99447.34
2022-11-29T01:36:07.317Z,99454.88
2022-11-29T01:38:36.243Z,99442.84
2022-11-29T01:41:08.379Z,99446.06
2022-11-29T01:43:56.638Z,99452.56
2022-11-29T01:46:27.090Z,99443.75
2022-11-29T01:48:58.645Z,99441.06
2022-11-29T01:51:27.936Z,99447.06
2022-11-29T01:53:56.484Z,99444.94
2022-11-29T01:56:25.674Z,99443.63
2022-11-29T01:58:53.662Z,99439.94
2022-11-29T02:01:21.558Z,99439.00
2022-11-29T02:03:51.090Z,99448.47
2022-11-29T02:06:19.486Z,99436.16
2022-11-29T02:08:48.084Z,99442.66
2022-11-29T02:11:37.294Z,99448.00
2022-11-29T02:14:22.736Z,99447.00
2022-11-29T02:16:59.037Z,99441.75
2022-11-29T02:19:50.744Z,99447.56
2022-11-29T02:22:25.552Z,99442.44
2022-11-29T02:25:14.229Z,99445.06
2022-11-29T02:28:36.793Z,99440.38
2022-11-29T02:31:40.142Z,99450.97
2022-11-29T02:34:32.114Z,99452.34
2022-11-29T02:37:20.453Z,99446.28
2022-11-29T02:40:03.229Z,99445.47
2022-11-29T02:43:08.482Z,99454.28
2022-11-29T02:46:05.351Z,99456.59
2022-11-29T02:48:56.941Z,99450.97
2022-11-29T02:51:36.418Z,99454.78
2022-11-29T02:54:12.101Z,99452.28
2022-11-29T02:56:47.832Z,99450.56
2022-11-29T02:59:28.758Z,99451.94
2022-11-29T03:02:04.236Z,99456.06
2022-11-29T03:04:39.796Z,99451.75
2022-11-29T03:07:16.668Z,99458.56
2022-11-29T03:09:50.262Z,99464.63
2022-11-29T03:12:28.512Z,99460.16
2022-11-29T03:15:04.078Z,99462.25
2022-11-29T03:17:42.014Z,99464.75
2022-11-29T03:20:27.032Z,99474.59
2022-11-29T03:23:15.105Z,99471.38
2022-11-29T03:25:47.217Z,99476.41
2022-11-29T03:28:19.859Z,99477.91
2022-11-29T03:30:56.449Z,99471.25
2022-11-29T03:33:33.030Z,99476.13
2022-11-29T03:36:08.706Z,99477.97
2022-11-29T03:38:41.631Z,99477.31
2022-11-29T03:41:21.246Z,99475.47
2022-11-29T03:43:56.182Z,99486.63
2022-11-29T03:46:33.472Z,99480.75
2022-11-29T03:49:05.122Z,99489.28
2022-11-29T03:51:48.023Z,99482.28
2022-11-29T03:54:23.713Z,99486.56
2022-11-29T03:56:52.263Z,99480.94
2022-11-29T03:59:32.813Z,99486.44
2022-11-29T04:02:37.263Z,99493.78
2022-11-29T04:05:46.079Z,99484.78
2022-11-29T04:08:44.083Z,99490.59
2022-11-29T04:11:54.949Z,99476.72
2022-11-29T04:14:57.709Z,99484.53
2022-11-29T04:17:53.945Z,99484.44
2022-11-29T04:20:54.482Z,99484.13
2022-11-29T04:24:07.149Z,99486.31
2022-11-29T04:27:15.280Z,99488.94
2022-11-29T04:30:04.871Z,99492.13
2022-11-29T04:33:13.872Z,99491.66
2022-11-29T04:35:57.145Z,99500.78
2022-11-29T04:38:50.454Z,99496.63
2022-11-29T04:41:59.299Z,99506.44
2022-11-29T04:44:55.637Z,99513.72
2022-11-29T04:47:43.732Z,99509.81
2022-11-29T04:50:24.170Z,99510.38
2022-11-29T04:53:21.774Z,99516.38
2022-11-29T04:55:57.905Z,99521.44
2022-11-29T04:58:36.311Z,99524.38
2022-11-29T05:01:15.978Z,99522.88
2022-11-29T05:03:56.747Z,99520.59
2022-11-29T05:06:30.397Z,99526.38
2022-11-29T05:09:08.168Z,99530.44
2022-11-29T05:11:50.698Z,99527.78
2022-11-29T05:14:32.548Z,99537.91
2022-11-29T05:17:20.252Z,99533.69
2022-11-29T05:20:02.405Z,99533.78
2022-11-29T05:22:37.127Z,99535.59
2022-11-29T05:25:26.292Z,99536.72
2022-11-29T05:27:59.195Z,99538.72
2022-11-29T05:30:41.665Z,99537.69
2022-11-29T05:33:23.356Z,99544.53
2022-11-29T05:35:55.857Z,99553.69
2022-11-29T05:38:56.614Z,99552.13
2022-11-29T05:41:42.616Z,99552.13
2022-11-29T05:44:16.147Z,99553.47
2022-11-29T05:46:55.262Z,99552.44
2022-11-29T05:49:34.634Z,99549.41
2022-11-29T05:52:19.397Z,99561.47
2022-11-29T05:55:00.126Z,99561.16
2022-11-29T05:57:37.387Z,99562.13
2022-11-29T06:00:07.777Z,99561.28
2022-11-29T06:02:50.115Z,99557.47
2022-11-29T06:05:27.132Z,99560.44
2022-11-29T06:08:00.362Z,99566.13
2022-11-29T06:10:32.992Z,99566.47
2022-11-29T06:13:12.723Z,99569.50
2022-11-29T06:16:17.452Z,99572.69
2022-11-29T06:19:20.905Z,99575.00
2022-11-29T06:21:59.476Z,99578.81
2022-11-29T06:24:46.567Z,99586.50
2022-11-29T06:27:41.855Z,99591.84
2022-11-29T06:30:12.403Z,99586.84
2022-11-29T06:32:50.551Z,99587.84
2022-11-29T06:35:36.944Z,99593.84
2022-11-29T06:38:10.857Z,99593.84
2022-11-29T06:40:39.302Z,99600.16
2022-11-29T06:43:07.765Z,99594.16
2022-11-29T06:45:36.159Z,99602.50
2022-11-29T06:48:06.111Z,99600.34
2022-11-29T06:50:47.632Z,99601.19
2022-11-29T06:53:23.562Z,99602.16
2022-11-29T06:55:59.869Z,99605.97
2022-11-29T06:58:43.980Z,99607.16
2022-11-29T07:01:20.695Z,99611.16
2022-11-29T07:04:06.836Z,99614.16
2022-11-29T07:06:37.262Z,99612.84
2022-11-29T07:09:14.407Z,99624.84
2022-11-29T07:11:42.855Z,99620.50
2022-11-29T07:14:11.176Z,99626.50
2022-11-29T07:16:53.159Z,99628.19
2022-11-29T07:19:35.108Z,99630.34
2022-11-29T07:22:10.311Z,99637.50
2022-11-29T07:24:52.107Z,99635.50
2022-11-29T07:27:24.907Z,99639.78
2022-11-29T07:30:07.721Z,99639.28
2022-11-29T07:32:51.440Z,99631.50
2022-11-29T07:35:31.412Z,99636.09
2022-11-29T07:38:11.108Z,99634.94
2022-11-29T07:40:47.276Z,99644.78
2022-11-29T07:43:26.140Z,99646.09
2022-11-29T07:45:54.979Z,99646.09
2022-11-29T07:48:22.827Z,99648.13
2022-11-29T07:50:50.946Z,99652.91
2022-11-29T07:53:22.908Z,99646.44
2022-11-29T07:55:51.362Z,99653.66
2022-11-29T07:58:21.065Z,99652.72
2022-11-29T08:00:49.059Z,99652.16
2022-11-29T08:03:16.903Z,99654.06
2022-11-29T08:05:48.137Z,99653.66
2022-11-29T08:08:16.658Z,99656.81
2022-11-29T08:10:46.605Z,99655.28
2022-11-29T08:13:15.693Z,99652.66
2022-11-29T08:15:46.991Z,99657.78
2022-11-29T08:18:15.285Z,99663.94
2022-11-29T08:20:43.728Z,99668.94
2022-11-29T08:23:13.816Z,99662.66
2022-11-29T08:25:41.848Z,99665.66
2022-11-29T08:28:11.183Z,99673.66
2022-11-29T08:30:39.594Z,99676.16
2022-11-29T08:33:07.659Z,99669.50
2022-11-29T08:35:36.909Z,99676.47
2022-11-29T08:38:05.107Z,99674.53
2022-11-29T08:40:33.257Z,99677.25
2022-11-29T08:43:01.146Z,99678.91
2022-11-29T08:45:30.474Z,99680.94
2022-11-29T08:47:58.354Z,99689.59
2022-11-29T08:50:26.217Z,99687.44
2022-11-29T08:53:11.710Z,99686.06
2022-11-29T08:55:42.873Z,99689.72
2022-11-29T08:58:13.638Z,99698.13
2022-11-29T09:00:45.570Z,99691.97
2022-11-29T09:03:31.068Z,99690.25
2022-11-29T09:06:00.405Z,99701.25
2022-11-29T09:08:28.256Z,99698.28
2022-11-29T09:10:56.105Z,99699.34
2022-11-29T09:13:23.934Z,99703.03
2022-11-29T09:15:53.169Z,99714.88
2022-11-29T09:18:22.733Z,99715.63
2022-11-29T09:20:50.669Z,99720.50
2022-11-29T09:23:18.525Z,99719.31
2022-11-29T09:25:49.756Z,99730.31
2022-11-29T09:28:17.683Z,99729.28
2022-11-29T09:30:45.693Z,99729.69
2022-11-29T09:33:14.924Z,99737.31
2022-11-29T09:35:42.969Z,99737.94
2022-11-29T09:38:12.254Z,99736.88
2022-11-29T09:40:46.691Z,99738.88
2022-11-29T09:43:25.124Z,99741.03
2022-11-29T09:46:01.566Z,99739.88
2022-11-29T09:48:43.882Z,99740.66
2022-11-29T09:51:22.530Z,99739.25
2022-11-29T09:54:07.563Z,99741.97
2022-11-29T09:56:39.842Z,99741.09
2022-11-29T09:59:12.902Z,99753.16
2022-11-29T10:01:45.196Z,99747.16
2022-11-29T10:04:18.664Z,99748.34
2022-11-29T10:06:53.090Z,99747.69
2022-11-29T10:09:29.566Z,99741.00
2022-11-29T10:12:08.386Z,99748.28
2022-11-29T10:14:45.416Z,99737.88
2022-11-29T10:17:26.102Z,99738.06
2022-11-29T10:19:59.816Z,99749.59
2022-11-29T10:22:37.695Z,99744.72
2022-11-29T10:25:10.382Z,99748.75
2022-11-29T10:27:41.636Z,99751.66
2022-11-29T10:30:15.085Z,99742.97
2022-11-29T10:32:45.501Z,99744.53
2022-11-29T10:35:18.289Z,99734.31
2022-11-29T10:38:07.619Z,99743.97
2022-11-29T10:40:37.201Z,99747.56
2022-11-29T10:43:05.330Z,99744.81
2022-11-29T10:45:37.780Z,99743.34
2022-11-29T10:48:09.155Z,99741.41
2022-11-29T10:50:42.755Z,99734.47
2022-11-29T10:53:13.393Z,99737.69
2022-11-29T10:55:45.225Z,99737.13
2022-11-29T10:58:22.091Z,99727.16
2022-11-29T11:00:56.711Z,99735.22
2022-11-29T11:03:30.462Z,99734.78
2022-11-29T11:06:07.597Z,99727.41
2022-11-29T11:08:36.981Z,99735.28
2022-11-29T11:11:07.758Z,99737.50
2022-11-29T11:13:37.543Z,99737.06
2022-11-29T11:16:17.842Z,99726.19
2022-11-29T11:18:47.038Z,99740.47
2022-11-29T11:21:19.177Z,99737.22
2022-11-29T11:23:54.235Z,99735.19
2022-11-29T11:26:22.899Z,99738.25
2022-11-29T11:28:54.586Z,99744.53
2022-11-29T11:31:32.785Z,99736.50
2022-11-29T11:34:25.396Z,99728.19
2022-11-29T11:36:55.111Z,99731.09
2022-11-29T11:39:24.489Z,99736.69
2022-11-29T11:42:10.899Z,99735.09
2022-11-29T11:44:49.328Z,99734.13
2022-11-29T11:47:20.633Z,99737.19
2022-11-29T11:49:51.612Z,99741.06
2022-11-29T11:52:24.155Z,99746.25
2022-11-29T11:54:55.666Z,99747.03
2022-11-29T11:57:25.894Z,99747.16
2022-11-29T11:59:55.616Z,99751.22
2022-11-29T12:02:29.106Z,99749.19
2022-11-29T12:05:00.013Z,99755.25
2022-11-29T12:08:06.329Z,99765.13
2022-11-29T12:10:25.782Z,99754.97
2022-11-29T12:12:55.998Z,99758.75
2022-11-29T12:15:29.567Z,99766.78
2022-11-29T12:18:03.022Z,99760.97
2022-11-29T12:20:35.076Z,99768.72
2022-11-29T12:23:23.067Z,99774.53
2022-11-29T12:25:55.840Z,99772.44
2022-11-29T12:28:28.314Z,99774.81
2022-11-29T12:31:16.337Z,99774.06
2022-11-29T12:33:50.889Z,99776.34
2022-11-29T12:36:30.045Z,99763.72
2022-11-29T12:39:22.659Z,99775.63
2022-11-29T12:41:57.312Z,99776.91
2022-11-29T12:44:40.916Z,99775.34
2022-11-29T12:47:37.711Z,99784.13
2022-11-29T12:50:21.719Z,99785.56
2022-11-29T12:53:02.330Z,99787.53
2022-11-29T12:55:42.562Z,99781.34
2022-11-29T12:58:16.490Z,99776.28
2022-11-29T13:01:01.851Z,99792.34
2022-11-29T13:03:34.017Z,99789.19
2022-11-29T13:06:15.888Z,99787.97
2022-11-29T13:08:59.180Z,99793.31
2022-11-29T13:11:31.573Z,99785.50
2022-11-29T13:14:34.778Z,99795.41
2022-11-29T13:17:00.050Z,99795.25
2022-11-29T13:19:34.664Z,99798.56
2022-11-29T13:22:11.501Z,99797.19
2022-11-29T13:24:44.176Z,99804.16
2022-11-29T13:27:19.513Z,99802.06
2022-11-29T13:29:48.127Z,99797.75
2022-11-29T13:32:29.120Z,99800.69
2022-11-29T13:35:01.991Z,99803.75
2022-11-29T13:37:36.903Z,99802.22
2022-11-29T13:40:22.869Z,99800.91
2022-11-29T13:43:02.381Z,99798.94
2022-11-29T13:45:38.234Z,99805.00
2022-11-29T13:48:34.911Z,99799.03
2022-11-29T13:51:41.437Z,99807.84
2022-11-29T13:54:29.376Z,99808.81
2022-11-29T13:57:09.091Z,99808.50
2022-11-29T13:59:47.299Z,99811.56
2022-11-29T14:02:29.697Z,99808.81
2022-11-29T14:04:57.761Z,99804.72
2022-11-29T14:07:25.696Z,99806.06
2022-11-29T14:10:00.314Z,99810.56
2022-11-29T14:12:39.529Z,99810.03
2022-11-29T14:15:24.126Z,99819.50
2022-11-29T14:17:55.160Z,99817.59
2022-11-29T14:20:57.018Z,99816.94
2022-11-29T14:23:42.064Z,99818.84
2022-11-29T14:26:30.581Z,99814.63
2022-11-29T14:28:59.638Z,99816.94
2022-11-29T14:31:52.455Z,99815.34
2022-11-29T14:34:33.477Z,99816.06
2022-11-29T14:37:15.593Z,99819.03
2022-11-29T14:39:47.042Z,99827.06
2022-11-29T14:42:18.768Z,99831.63
2022-11-29T14:44:52.938Z,99829.78
2022-11-29T14:47:31.451Z,99828.78
2022-11-29T14:50:03.855Z,99835.09
2022-11-29T14:52:37.107Z,99833.25
2022-11-29T14:55:09.329Z,99837.97
2022-11-29T14:58:16.818Z,99836.13
2022-11-29T15:01:10.881Z,99838.47
2022-11-29T15:03:50.766Z,99845.16
2022-11-29T15:06:26.380Z,99838.81
2022-11-29T15:09:00.512Z,99839.47
2022-11-29T15:11:36.998Z,99838.47
2022-11-29T15:14:08.011Z,99849.50
2022-11-29T15:17:12.375Z,99847.19
2022-11-29T15:20:17.879Z,99849.50
2022-11-29T15:22:52.372Z,99858.59
2022-11-29T15:25:22.427Z,99855.94
2022-11-29T15:27:54.674Z,99851.63
2022-11-29T15:30:30.771Z,99860.38
2022-11-29T15:33:00.099Z,99866.09
2022-11-29T15:35:29.767Z,99866.09
2022-11-29T15:37:58.085Z,99869.94
2022-11-29T15:40:34.451Z,99866.53
2022-11-29T15:43:14.869Z,99867.38
2022-11-29T15:45:48.257Z,99873.03
2022-11-29T15:48:22.209Z,99878.06
2022-11-29T15:51:12.304Z,99882.22
2022-11-29T15:53:47.175Z,99885.72
2022-11-29T15:56:20.162Z,99890.06
2022-11-29T15:58:51.075Z,99889.72
2022-11-29T16:01:22.378Z,99888.41
2022-11-29T16:03:53.435Z,99892.25
2022-11-29T16:06:29.880Z,99892.00
2022-11-29T16:08:57.978Z,99889.94
2022-11-29T16:11:29.131Z,99896.09
2022-11-29T16:14:05.331Z,99892.44
2022-11-29T16:16:35.649Z,99899.09
2022-11-29T16:19:11.915Z,99896.44
2022-11-29T16:21:44.622Z,99902.09
2022-11-29T16:24:14.660Z,99911.59
2022-11-29T16:26:45.123Z,99914.44
2022-11-29T16:29:24.461Z,99921.47
2022-11-29T16:31:53.481Z,99920.47
2022-11-29T16:34:27.563Z,99922.47
2022-11-29T16:37:05.640Z,99917.81
2022-11-29T16:39:35.155Z,99921.13
2022-11-29T16:42:08.089Z,99926.31
2022-11-29T16:45:27.775Z,99920.81
2022-11-29T16:47:58.990Z,99920.81
2022-11-29T16:50:29.558Z,99922.13
2022-11-29T16:53:35.278Z,99922.63
2022-11-29T16:56:03.339Z,99917.13
2022-11-29T16:58:31.681Z,99919.31
2022-11-29T17:00:59.742Z,99917.13
2022-11-29T17:03:27.658Z,99915.97
2022-11-29T17:05:55.516Z,99923.31
2022-11-29T17:08:24.808Z,99919.88
2022-11-29T17:10:52.646Z,99918.81
2022-11-29T17:13:20.503Z,99922.47
2022-11-29T17:15:48.390Z,99922.13
2022-11-29T17:18:16.394Z,99926.16
2022-11-29T17:20:44.235Z,99931.03
2022-11-29T17:23:13.530Z,99920.81
2022-11-29T17:25:42.794Z,99928.53
2022-11-29T17:28:11.140Z,99923.19
2022-11-29T17:30:39.038Z,99938.91
2022-11-29T17:33:06.864Z,99925.53
2022-11-29T17:35:36.318Z,99939.22
2022-11-29T17:38:04.341Z,99927.88
2022-11-29T17:40:32.209Z,99936.84
2022-11-29T17:43:01.533Z,99928.16
2022-11-29T17:45:29.359Z,99933.50
2022-11-29T17:47:59.656Z,99932.38
2022-11-29T17:50:27.535Z,99932.22
2022-11-29T17:52:55.396Z,99943.75
2022-11-29T17:55:26.965Z,99939.56
2022-11-29T17:57:57.322Z,99950.59
2022-11-29T18:00:27.080Z,99959.94
2022-11-29T18:02:54.948Z,99960.94
2022-11-29T18:05:23.058Z,99952.25
2022-11-29T18:08:00.153Z,99956.44
2022-11-29T18:10:29.222Z,99953.94
2022-11-29T18:12:57.576Z,99956.78
2022-11-29T18:15:26.854Z,99960.59
2022-11-29T18:17:55.014Z,99964.09
2022-11-29T18:20:22.855Z,99951.59
2022-11-29T18:22:50.721Z,99961.09
2022-11-29T18:25:38.302Z,99960.59
2022-11-29T18:28:08.679Z,99974.13
2022-11-29T18:30:38.009Z,99965.94
2022-11-29T18:33:05.928Z,99965.91
2022-11-29T18:35:33.758Z,99972.13
2022-11-29T18:38:16.981Z,99972.31
2022-11-29T18:40:46.232Z,99970.47
2022-11-29T18:43:16.556Z,99978.31
2022-11-29T18:45:45.842Z,99975.25
2022-11-29T18:48:13.908Z,99971.78
2022-11-29T18:50:41.763Z,99967.63
2022-11-29T18:53:09.577Z,99973.63
2022-11-29T18:55:37.414Z,99968.31
2022-11-29T18:58:06.666Z,99967.78
2022-11-29T19:00:34.628Z,99965.28
2022-11-29T19:03:03.909Z,99968.97
2022-11-29T19:05:31.772Z,99968.31
2022-11-29T19:07:59.689Z,99973.66
2022-11-29T19:10:27.571Z,99974.66
2022-11-29T19:12:55.737Z,99984.31
2022-11-29T19:15:23.578Z,99982.00
2022-11-29T19:17:51.460Z,99982.00
2022-11-29T19:20:20.712Z,99982.16
2022-11-29T19:22:48.906Z,99979.66
2022-11-29T19:25:16.914Z,99987.00
2022-11-29T19:27:45.390Z,99981.16
2022-11-29T19:30:15.499Z,99977.31
2022-11-29T19:32:43.837Z,99971.63
2022-11-29T19:35:11.656Z,99978.16
2022-11-29T19:37:42.040Z,99991.19
2022-11-29T19:40:10.355Z,100002.03
2022-11-29T19:42:38.183Z,100005.03
2022-11-29T19:45:16.861Z,100004.69
2022-11-29T19:47:45.776Z,100001.03
2022-11-29T19:50:13.598Z,100005.53
2022-11-29T19:52:42.980Z,99993.19
2022-11-29T19:55:11.087Z,99998.69
2022-11-29T19:57:39.495Z,99997.00
2022-11-29T20:00:08.613Z,99990.34
2022-11-29T20:02:36.546Z,99995.69
2022-11-29T20:05:04.538Z,99992.69
2022-11-29T20:07:32.452Z,99995.34
2022-11-29T20:10:01.730Z,99999.69
2022-11-29T20:12:32.321Z,100000.69
2022-11-29T20:15:01.015Z,99989.34
2022-11-29T20:17:29.082Z,99997.84
2022-11-29T20:19:57.063Z,99997.69
2022-11-29T20:22:24.936Z,100003.69
2022-11-29T20:24:54.423Z,100009.53
2022-11-29T20:27:23.910Z,100007.03
2022-11-29T20:29:51.841Z,100003.88
2022-11-29T20:32:20.316Z,100011.03
2022-11-29T20:34:49.028Z,100014.22
2022-11-29T20:37:39.457Z,100013.88
2022-11-29T20:40:12.721Z,100011.72
2022-11-29T20:42:51.523Z,100017.06
2022-11-29T20:45:20.072Z,100011.53
2022-11-29T20:47:54.974Z,100013.53
2022-11-29T20:50:25.203Z,100010.72
2022-11-29T20:53:13.822Z,100011.38
2022-11-29T20:55:47.746Z,100019.06
2022-11-29T20:58:19.475Z,100013.03
2022-11-29T21:00:47.864Z,100011.38
2022-11-29T21:03:16.259Z,100016.06
2022-11-29T21:05:44.898Z,100015.38
2022-11-29T21:08:13.482Z,100019.38
2022-11-29T21:10:41.449Z,100021.38
2022-11-29T21:13:12.425Z,100020.06
2022-11-29T21:15:42.414Z,100020.38
2022-11-29T21:18:20.943Z,100017.38
2022-11-29T21:20:58.423Z,100031.25
2022-11-29T21:23:35.586Z,100027.75
2022-11-29T21:26:09.439Z,100030.91
2022-11-29T21:28:42.764Z,100026.06
2022-11-29T21:31:17.735Z,100024.06
2022-11-29T21:33:46.186Z,100030.41
2022-11-29T21:36:14.673Z,100035.41
2022-11-29T21:38:42.769Z,100032.56
2022-11-29T21:41:10.608Z,100026.75
2022-11-29T21:44:04.877Z,100038.59
2022-11-29T21:46:27.709Z,100029.06
2022-11-29T21:48:55.658Z,100029.91
2022-11-29T21:51:23.593Z,100026.06
2022-11-29T21:53:51.582Z,100033.41
2022-11-29T21:56:19.621Z,100027.56
2022-11-29T21:58:47.444Z,100032.75
2022-11-29T22:01:18.043Z,100042.25
2022-11-29T22:03:47.763Z,100029.91
2022-11-29T22:06:18.311Z,100034.09
2022-11-29T22:08:46.292Z,100033.59
2022-11-29T22:11:16.445Z,100033.25
2022-11-29T22:13:59.395Z,100030.56
2022-11-29T22:16:27.622Z,100032.41
2022-11-29T22:18:57.020Z,100031.06
2022-11-29T22:21:24.885Z,100028.41
2022-11-29T22:23:53.498Z,100030.06
2022-11-29T22:26:21.425Z,100032.75
2022-11-29T22:28:49.376Z,100039.09
2022-11-29T22:31:17.287Z,100040.94
2022-11-29T22:33:45.132Z,100051.28
2022-11-29T22:36:14.556Z,100047.09
2022-11-29T22:38:42.412Z,100042.75
2022-11-29T22:41:12.958Z,100046.78
2022-11-29T22:43:42.106Z,100058.47
2022-11-29T22:46:11.796Z,100056.44
2022-11-29T22:48:40.834Z,100050.63
2022-11-29T22:51:10.298Z,100051.13
2022-11-29T22:53:41.843Z,100058.13
2022-11-29T22:56:11.990Z,100052.13
2022-11-29T22:58:40.029Z,100049.13
2022-11-29T23:01:10.638Z,100045.44
2022-11-29T23:03:40.071Z,100041.75
2022-11-29T23:06:09.621Z,100049.94
2022-11-29T23:08:39.778Z,100057.78
2022-11-29T23:11:09.290Z,100050.63
2022-11-29T23:13:39.437Z,100067.66
2022-11-29T23:16:10.688Z,100062.47
2022-11-29T23:18:39.996Z,100061.63
2022-11-29T23:21:10.078Z,100068.81
2022-11-29T23:23:39.395Z,100061.47
2022-11-29T23:26:08.726Z,100059.47
2022-11-29T23:28:37.277Z,100052.94
2022-11-29T23:31:05.135Z,100047.44
2022-11-29T23:33:33.015Z,100048.09
2022-11-29T23:36:02.531Z,100053.63
2022-11-29T23:38:30.469Z,100044.78
2022-11-29T23:41:00.019Z,100039.94
2022-11-29T23:43:30.551Z,100039.94
2022-11-29T23:45:58.496Z,100027.41
2022-11-29T23:48:27.027Z,100034.91
2022-11-29T23:50:54.928Z,100044.09
2022-11-29T23:53:22.998Z,100044.63
2022-11-29T23:55:57.513Z,100043.94
2022-11-29T23:58:27.360Z,100044.09
